createdAt,value
2019-04-21T00:00:51.501Z,13.80
2019-04-21T00:03:23.274Z,13.90
2019-04-21T00:06:07.588Z,13.80
2019-04-21T00:08:35.090Z,13.70
2019-04-21T00:11:12.429Z,13.60
2019-04-21T00:13:33.190Z,13.50
2019-04-21T00:15:57.927Z,13.40
2019-04-21T00:18:47.894Z,13.20
2019-04-21T00:21:21.150Z,13.10
2019-04-21T00:23:59.068Z,13.00
2019-04-21T00:26:31.807Z,12.90
2019-04-21T00:29:09.734Z,12.70
2019-04-21T00:31:28.546Z,12.60
2019-04-21T00:33:48.145Z,12.50
2019-04-21T00:36:22.703Z,12.40
2019-04-21T00:39:22.005Z,12.20
2019-04-21T00:41:36.601Z,12.10
2019-04-21T00:44:04.500Z,11.90
2019-04-21T00:46:35.150Z,11.80
2019-04-21T00:49:05.949Z,11.60
2019-04-21T00:52:03.625Z,11.50
2019-04-21T00:54:32.815Z,11.40
2019-04-21T00:57:06.544Z,11.30
2019-04-21T00:59:33.061Z,11.30
2019-04-21T01:02:00.058Z,11.20
2019-04-21T01:04:37.097Z,11.20
2019-04-21T01:07:02.960Z,11.10
2019-04-21T01:09:27.861Z,11.00
2019-04-21T01:12:03.708Z,10.90
2019-04-21T01:14:45.630Z,10.90
2019-04-21T01:17:15.731Z,11.10
2019-04-21T01:19:36.985Z,11.20
2019-04-21T01:21:49.790Z,11.30
2019-04-21T01:24:26.707Z,11.30
2019-04-21T01:27:01.042Z,11.30
2019-04-21T01:29:48.137Z,11.30
2019-04-21T01:32:31.243Z,11.20
2019-04-21T01:34:58.291Z,11.10
2019-04-21T01:37:35.743Z,11.10
2019-04-21T01:40:02.512Z,11.10
2019-04-21T01:42:28.682Z,11.10
2019-04-21T01:44:58.317Z,11.10
2019-04-21T01:47:26.227Z,11.20
2019-04-21T01:49:59.505Z,11.20
2019-04-21T01:52:50.236Z,11.30
2019-04-21T01:55:25.185Z,11.20
2019-04-21T01:57:49.341Z,11.20
2019-04-21T02:00:30.546Z,11.30
2019-04-21T02:03:09.914Z,11.30
2019-04-21T02:05:36.356Z,11.30
2019-04-21T02:08:00.782Z,11.30
2019-04-21T02:10:44.684Z,11.20
2019-04-21T02:13:03.558Z,11.10
2019-04-21T02:15:56.065Z,11.10
2019-04-21T02:18:09.198Z,11.00
2019-04-21T02:20:32.724Z,10.90
2019-04-21T02:25:44.577Z,10.90
2019-04-21T02:28:24.014Z,10.80
2019-04-21T02:30:55.097Z,10.80
2019-04-21T02:36:00.570Z,10.80
2019-04-21T02:38:32.127Z,10.70
2019-04-21T02:40:49.503Z,10.60
2019-04-21T02:43:25.045Z,10.60
2019-04-21T02:46:04.431Z,10.60
2019-04-21T02:51:01.672Z,10.60
2019-04-21T02:53:50.259Z,10.60
2019-04-21T02:56:13.886Z,10.60
2019-04-21T02:58:47.963Z,10.70
2019-04-21T03:01:25.912Z,10.70
2019-04-21T03:04:13.592Z,10.70
2019-04-21T03:09:29.676Z,10.60
2019-04-21T03:12:05.574Z,10.60
2019-04-21T03:14:40.744Z,10.60
2019-04-21T03:16:57.733Z,10.60
2019-04-21T03:19:36.509Z,10.50
2019-04-21T03:22:07.186Z,10.40
2019-04-21T03:24:42.083Z,10.30
2019-04-21T03:35:03.797Z,9.90
2019-04-21T03:37:14.062Z,9.80
2019-04-21T03:39:37.184Z,9.70
2019-04-21T03:44:43.615Z,9.50
2019-04-21T03:49:50.086Z,9.50
2019-04-21T03:55:42.911Z,9.50
2019-04-21T03:58:04.785Z,9.50
2019-04-21T04:00:34.659Z,9.40
2019-04-21T04:06:03.563Z,9.30
2019-04-21T04:11:05.952Z,9.20
2019-04-21T04:13:39.367Z,9.10
2019-04-21T04:18:39.103Z,9.10
2019-04-21T04:21:10.125Z,9.00
2019-04-21T04:23:41.549Z,9.00
2019-04-21T04:31:05.093Z,8.90
2019-04-21T04:38:52.332Z,8.80
2019-04-21T04:41:24.962Z,8.80
2019-04-21T04:44:07.123Z,8.80
2019-04-21T04:46:26.659Z,8.80
2019-04-21T04:49:01.702Z,8.80
2019-04-21T04:51:48.383Z,8.80
2019-04-21T04:54:06.367Z,8.90
2019-04-21T04:56:31.694Z,8.90
2019-04-21T04:59:23.276Z,8.90
2019-04-21T05:02:19.809Z,9.00
2019-04-21T05:06:42.627Z,9.00
2019-04-21T05:11:44.334Z,9.00
2019-04-21T05:21:42.042Z,9.20
2019-04-21T05:23:55.882Z,9.30
2019-04-21T05:26:25.812Z,9.50
2019-04-21T05:28:52.679Z,9.60
2019-04-21T05:31:44.363Z,9.90
2019-04-21T05:34:09.502Z,10.20
2019-04-21T05:36:44.572Z,10.40
2019-04-21T05:39:14.638Z,10.70
2019-04-21T05:41:43.030Z,10.80
2019-04-21T05:44:31.225Z,10.90
2019-04-21T05:47:08.306Z,11.00
2019-04-21T05:49:38.716Z,11.10
2019-04-21T05:52:08.030Z,11.10
2019-04-21T05:54:53.077Z,11.20
2019-04-21T05:57:11.955Z,11.50
2019-04-21T05:59:49.174Z,11.70
2019-04-21T06:02:22.269Z,12.10
2019-04-21T06:07:25.766Z,12.50
2019-04-21T06:09:57.319Z,12.80
2019-04-21T06:12:29.715Z,13.10
2019-04-21T06:17:35.078Z,13.30
2019-04-21T06:20:02.916Z,13.40
2019-04-21T06:22:34.017Z,13.70
2019-04-21T06:25:35.880Z,14.00
2019-04-21T06:27:34.061Z,14.60
2019-04-21T06:30:06.893Z,15.00
2019-04-21T06:32:46.867Z,15.50
2019-04-21T06:35:39.953Z,15.80
2019-04-21T06:38:21.301Z,15.90
2019-04-21T06:40:38.888Z,15.90
2019-04-21T06:43:15.800Z,16.10
2019-04-21T06:45:37.720Z,16.40
2019-04-21T06:48:09.100Z,16.50
2019-04-21T06:50:39.870Z,16.60
2019-04-21T06:53:04.059Z,17.00
2019-04-21T06:55:41.923Z,17.30
2019-04-21T06:58:11.949Z,17.50
2019-04-21T07:00:35.859Z,18.10
2019-04-21T07:03:20.642Z,18.50
2019-04-21T07:10:47.991Z,18.70
2019-04-21T07:13:19.164Z,18.50
2019-04-21T07:15:43.444Z,18.40
2019-04-21T07:18:24.941Z,18.40
2019-04-21T07:20:49.186Z,18.90
2019-04-21T07:23:28.506Z,19.00
2019-04-21T07:25:54.817Z,19.30
2019-04-21T07:28:25.341Z,19.90
2019-04-21T07:30:59.467Z,20.40
2019-04-21T07:33:50.646Z,20.90
2019-04-21T07:35:59.434Z,21.60
2019-04-21T07:38:24.424Z,21.80
2019-04-21T07:40:45.965Z,21.90
2019-04-21T07:43:20.777Z,22.40
2019-04-21T07:45:49.747Z,22.80
2019-04-21T07:48:38.047Z,23.00
2019-04-21T07:51:11.209Z,22.90
2019-04-21T07:53:49.881Z,22.90
2019-04-21T07:55:59.425Z,22.90
2019-04-21T07:58:47.690Z,22.80
2019-04-21T08:01:19.943Z,22.60
2019-04-21T08:03:50.736Z,23.00
2019-04-21T08:06:20.667Z,23.10
2019-04-21T08:08:51.039Z,23.70
2019-04-21T08:11:15.257Z,24.20
2019-04-21T08:14:01.708Z,24.50
2019-04-21T08:16:28.562Z,24.50
2019-04-21T08:18:52.106Z,24.80
2019-04-21T08:21:23.621Z,24.70
2019-04-21T08:23:48.355Z,24.60
2019-04-21T08:26:29.241Z,24.30
2019-04-21T08:29:15.354Z,24.70
2019-04-21T08:31:32.668Z,25.60
2019-04-21T08:34:09.668Z,24.90
2019-04-21T08:36:33.954Z,24.70
2019-04-21T08:39:08.753Z,24.70
2019-04-21T08:41:40.786Z,24.40
2019-04-21T08:44:09.318Z,25.20
2019-04-21T08:46:39.135Z,25.50
2019-04-21T08:49:18.440Z,25.90
2019-04-21T08:51:50.147Z,26.40
2019-04-21T08:54:17.059Z,27.10
2019-04-21T08:56:55.399Z,27.10
2019-04-21T09:02:18.239Z,26.40
2019-04-21T09:04:47.985Z,26.20
2019-04-21T09:07:21.323Z,26.40
2019-04-21T09:09:47.435Z,26.90
2019-04-21T09:12:14.928Z,26.90
2019-04-21T09:14:50.596Z,27.40
2019-04-21T09:17:15.287Z,27.30
2019-04-21T09:20:01.336Z,27.70
2019-04-21T09:22:26.902Z,27.30
2019-04-21T09:24:55.928Z,27.10
2019-04-21T09:27:27.560Z,27.50
2019-04-21T09:29:47.954Z,27.60
2019-04-21T09:32:18.513Z,27.20
2019-04-21T09:34:45.304Z,27.40
2019-04-21T09:37:26.443Z,26.80
2019-04-21T09:39:50.258Z,26.90
2019-04-21T09:42:18.411Z,26.60
2019-04-21T09:44:50.520Z,26.90
2019-04-21T09:47:22.571Z,27.40
2019-04-21T09:49:49.443Z,27.70
2019-04-21T09:52:23.914Z,27.50
2019-04-21T09:54:58.616Z,27.60
2019-04-21T09:57:31.526Z,27.40
2019-04-21T10:00:02.198Z,27.30
2019-04-21T10:02:35.608Z,27.60
2019-04-21T10:04:52.648Z,28.20
2019-04-21T10:07:29.315Z,28.20
2019-04-21T10:09:54.498Z,28.40
2019-04-21T10:12:23.925Z,28.20
2019-04-21T10:14:53.237Z,28.10
2019-04-21T10:17:24.213Z,28.70
2019-04-21T10:19:52.959Z,28.30
2019-04-21T10:22:23.206Z,28.30
2019-04-21T10:24:52.656Z,28.10
2019-04-21T10:27:23.116Z,27.80
2019-04-21T10:29:52.262Z,27.70
2019-04-21T10:32:23.645Z,27.30
2019-04-21T10:34:52.903Z,27.10
2019-04-21T10:37:35.414Z,27.60
2019-04-21T10:39:55.798Z,27.40
2019-04-21T10:42:25.262Z,26.80
2019-04-21T10:44:54.843Z,26.90
2019-04-21T10:47:24.776Z,27.10
2019-04-21T10:49:58.298Z,27.90
2019-04-21T10:52:46.915Z,28.40
2019-04-21T10:55:32.343Z,28.50
2019-04-21T10:58:06.407Z,28.00
2019-04-21T11:00:36.870Z,27.70
2019-04-21T11:03:24.852Z,27.70
2019-04-21T11:05:56.687Z,27.90
2019-04-21T11:08:32.570Z,27.70
2019-04-21T11:10:58.208Z,27.60
2019-04-21T11:13:28.367Z,27.90
2019-04-21T11:15:59.176Z,27.60
2019-04-21T11:18:28.618Z,27.60
2019-04-21T11:20:58.658Z,28.00
2019-04-21T11:23:29.121Z,28.30
2019-04-21T11:26:00.116Z,28.00
2019-04-21T11:28:31.073Z,28.60
2019-04-21T11:31:13.213Z,28.30
2019-04-21T11:33:43.026Z,28.20
2019-04-21T11:36:13.375Z,28.00
2019-04-21T11:39:05.063Z,28.00
2019-04-21T11:41:16.057Z,28.10
2019-04-21T11:43:45.577Z,27.90
2019-04-21T11:46:16.523Z,28.00
2019-04-21T11:48:46.198Z,28.50
2019-04-21T11:51:15.721Z,29.00
2019-04-21T11:53:45.018Z,29.70
2019-04-21T11:56:14.708Z,29.50
2019-04-21T11:58:44.055Z,29.10
2019-04-21T12:01:15.555Z,28.80
2019-04-21T12:03:45.470Z,28.80
2019-04-21T12:06:17.275Z,29.40
2019-04-21T12:08:49.924Z,29.00
2019-04-21T12:11:17.897Z,29.40
2019-04-21T12:13:47.972Z,29.20
2019-04-21T12:16:17.427Z,29.30
2019-04-21T12:18:47.172Z,29.40
2019-04-21T12:21:16.731Z,29.30
2019-04-21T12:23:46.047Z,29.20
2019-04-21T12:26:15.949Z,28.80
2019-04-21T12:28:45.955Z,28.50
2019-04-21T12:31:33.732Z,28.30
2019-04-21T12:34:05.836Z,28.50
2019-04-21T12:36:35.815Z,29.40
2019-04-21T12:39:08.414Z,29.30
2019-04-21T12:41:38.417Z,28.60
2019-04-21T12:44:08.791Z,28.80
2019-04-21T12:46:38.319Z,29.20
2019-04-21T12:49:09.780Z,28.90
2019-04-21T12:51:39.779Z,29.00
2019-04-21T12:54:11.980Z,29.30
2019-04-21T12:56:41.487Z,30.30
2019-04-21T12:59:12.038Z,29.90
2019-04-21T13:01:41.507Z,29.80
2019-04-21T13:04:11.072Z,29.70
2019-04-21T13:06:41.515Z,29.70
2019-04-21T13:09:14.310Z,28.50
2019-04-21T13:11:41.434Z,29.60
2019-04-21T13:14:11.587Z,29.90
2019-04-21T13:16:41.272Z,30.10
2019-04-21T13:19:11.484Z,31.00
2019-04-21T13:21:40.472Z,30.80
2019-04-21T13:24:09.845Z,31.00
2019-04-21T13:26:45.662Z,31.10
2019-04-21T13:29:10.211Z,30.80
2019-04-21T13:31:40.384Z,30.50
2019-04-21T13:34:10.502Z,30.40
2019-04-21T13:36:41.319Z,28.70
2019-04-21T13:39:44.401Z,30.00
2019-04-21T13:42:00.561Z,30.50
2019-04-21T13:44:19.627Z,30.80
2019-04-21T13:46:52.350Z,31.30
2019-04-21T13:49:23.354Z,31.50
2019-04-21T13:51:54.060Z,31.40
2019-04-21T13:54:25.428Z,31.10
2019-04-21T13:56:56.395Z,30.40
2019-04-21T13:59:26.464Z,30.00
2019-04-21T14:01:55.914Z,30.00
2019-04-21T14:04:25.333Z,29.40
2019-04-21T14:06:56.265Z,29.30
2019-04-21T14:09:37.929Z,29.70
2019-04-21T14:11:57.092Z,29.80
2019-04-21T14:14:26.510Z,29.70
2019-04-21T14:16:56.175Z,29.60
2019-04-21T14:19:25.693Z,30.00
2019-04-21T14:21:55.357Z,29.90
2019-04-21T14:24:24.835Z,29.50
2019-04-21T14:26:54.392Z,29.30
2019-04-21T14:29:23.949Z,28.90
2019-04-21T14:31:53.765Z,28.20
2019-04-21T14:34:23.873Z,28.30
2019-04-21T14:36:54.912Z,28.00
2019-04-21T14:39:24.382Z,27.90
2019-04-21T14:41:53.877Z,27.60
2019-04-21T14:44:23.197Z,27.20
2019-04-21T14:46:55.313Z,27.00
2019-04-21T14:49:39.424Z,27.20
2019-04-21T14:52:10.735Z,26.90
2019-04-21T14:54:42.700Z,26.80
2019-04-21T14:57:13.473Z,26.50
2019-04-21T14:59:42.971Z,26.60
2019-04-21T15:02:12.278Z,26.20
2019-04-21T15:04:41.776Z,26.20
2019-04-21T15:07:11.166Z,26.00
2019-04-21T15:09:42.533Z,26.00
2019-04-21T15:12:11.883Z,25.80
2019-04-21T15:14:42.258Z,25.70
2019-04-21T15:17:12.521Z,25.50
2019-04-21T15:19:49.652Z,25.40
2019-04-21T15:22:14.523Z,25.40
2019-04-21T15:24:44.521Z,25.30
2019-04-21T15:27:14.687Z,25.40
2019-04-21T15:29:44.872Z,25.30
2019-04-21T15:32:14.897Z,25.20
2019-04-21T15:34:44.449Z,25.10
2019-04-21T15:37:13.829Z,25.10
2019-04-21T15:39:44.683Z,25.00
2019-04-21T15:42:14.580Z,24.90
2019-04-21T15:44:44.952Z,24.80
2019-04-21T15:47:15.792Z,24.70
2019-04-21T15:50:00.917Z,24.60
2019-04-21T15:52:27.733Z,24.50
2019-04-21T15:55:05.356Z,24.50
2019-04-21T15:57:52.291Z,24.50
2019-04-21T16:00:24.663Z,24.40
2019-04-21T16:02:54.846Z,24.40
2019-04-21T16:05:26.655Z,24.30
2019-04-21T16:07:56.162Z,24.20
2019-04-21T16:10:36.794Z,24.10
2019-04-21T16:12:58.107Z,24.10
2019-04-21T16:15:28.265Z,24.00
2019-04-21T16:17:59.245Z,24.10
2019-04-21T16:20:29.990Z,24.10
2019-04-21T16:23:00.308Z,24.00
2019-04-21T16:25:30.567Z,23.90
2019-04-21T16:28:01.418Z,23.80
2019-04-21T16:30:30.918Z,23.80
2019-04-21T16:33:00.283Z,23.70
2019-04-21T16:35:29.672Z,23.70
2019-04-21T16:38:00.791Z,23.60
2019-04-21T16:40:41.338Z,23.70
2019-04-21T16:43:01.057Z,23.60
2019-04-21T16:45:32.727Z,23.60
2019-04-21T16:48:03.419Z,23.60
2019-04-21T16:50:33.976Z,23.60
2019-04-21T16:53:12.155Z,23.50
2019-04-21T16:55:44.875Z,23.50
2019-04-21T16:58:32.695Z,23.30
2019-04-21T17:01:10.240Z,23.40
2019-04-21T17:03:34.820Z,23.40
2019-04-21T17:06:05.100Z,23.40
2019-04-21T17:08:36.711Z,23.30
2019-04-21T17:11:16.140Z,23.30
2019-04-21T17:13:38.270Z,23.30
2019-04-21T17:16:39.925Z,23.30
2019-04-21T17:18:52.851Z,23.20
2019-04-21T17:21:11.137Z,23.10
2019-04-21T17:23:40.834Z,23.10
2019-04-21T17:26:10.980Z,23.10
2019-04-21T17:28:40.784Z,23.00
2019-04-21T17:31:10.861Z,23.00
2019-04-21T17:33:41.398Z,23.00
2019-04-21T17:36:11.705Z,22.90
2019-04-21T17:38:41.820Z,22.80
2019-04-21T17:41:23.233Z,22.70
2019-04-21T17:43:45.547Z,22.60
2019-04-21T17:46:24.518Z,22.60
2019-04-21T17:48:47.130Z,22.50
2019-04-21T17:51:25.514Z,22.40
2019-04-21T17:54:00.409Z,22.30
2019-04-21T17:56:55.173Z,22.10
2019-04-21T17:59:35.927Z,22.00
2019-04-21T18:01:54.664Z,21.90
2019-04-21T18:04:28.529Z,21.80
2019-04-21T18:06:59.355Z,21.70
2019-04-21T18:09:37.279Z,21.60
2019-04-21T18:12:05.778Z,21.50
2019-04-21T18:14:20.248Z,21.40
2019-04-21T18:16:49.880Z,21.20
2019-04-21T18:19:26.140Z,20.90
2019-04-21T18:21:56.821Z,20.70
2019-04-21T18:24:35.333Z,20.60
2019-04-21T18:26:58.784Z,20.40
2019-04-21T18:29:25.932Z,20.20
2019-04-21T18:31:56.310Z,20.10
2019-04-21T18:34:42.812Z,20.00
2019-04-21T18:37:14.750Z,19.90
2019-04-21T18:39:55.836Z,19.80
2019-04-21T18:42:37.206Z,19.70
2019-04-21T18:45:32.729Z,19.50
2019-04-21T18:47:48.934Z,19.30
2019-04-21T18:50:29.425Z,19.10
2019-04-21T18:53:08.954Z,18.90
2019-04-21T18:55:37.823Z,18.70
2019-04-21T18:58:01.024Z,18.50
2019-04-21T19:00:34.477Z,18.40
2019-04-21T19:03:03.141Z,18.20
2019-04-21T19:05:34.299Z,18.00
2019-04-21T19:08:18.860Z,17.90
2019-04-21T19:10:58.644Z,17.80
2019-04-21T19:13:41.904Z,17.70
2019-04-21T19:16:17.358Z,17.70
2019-04-21T19:20:58.612Z,17.60
2019-04-21T19:23:41.374Z,17.60
2019-04-21T19:26:09.903Z,17.50
2019-04-21T19:28:38.001Z,17.40
2019-04-21T19:31:17.404Z,17.30
2019-04-21T19:33:40.388Z,17.20
2019-04-21T19:35:57.639Z,17.10
2019-04-21T19:38:38.612Z,17.00
2019-04-21T19:41:15.690Z,16.90
2019-04-21T19:43:45.998Z,16.80
2019-04-21T19:46:13.891Z,16.70
2019-04-21T19:48:56.685Z,16.50
2019-04-21T19:51:15.069Z,16.40
2019-04-21T19:53:44.621Z,16.30
2019-04-21T19:56:03.801Z,16.30
2019-04-21T19:58:38.438Z,16.20
2019-04-21T20:01:05.682Z,16.10
2019-04-21T20:03:36.599Z,16.10
2019-04-21T20:06:17.871Z,16.00
2019-04-21T20:08:54.687Z,16.00
2019-04-21T20:11:24.140Z,16.10
2019-04-21T20:14:26.363Z,16.10
2019-04-21T20:16:31.894Z,16.00
2019-04-21T20:18:46.937Z,16.00
2019-04-21T20:21:12.160Z,15.90
2019-04-21T20:23:43.210Z,15.80
2019-04-21T20:26:14.083Z,15.70
2019-04-21T20:28:52.958Z,15.60
2019-04-21T20:31:32.834Z,15.40
2019-04-21T20:34:05.082Z,15.30
2019-04-21T20:36:35.330Z,15.20
2019-04-21T20:38:53.543Z,15.10
2019-04-21T20:41:33.849Z,15.00
2019-04-21T20:44:12.047Z,14.80
2019-04-21T20:46:39.830Z,14.80
2019-04-21T20:49:06.983Z,14.60
2019-04-21T20:51:43.823Z,14.60
2019-04-21T20:54:16.082Z,14.50
2019-04-21T20:56:52.482Z,14.50
2019-04-21T20:59:14.734Z,14.30
2019-04-21T21:01:43.397Z,14.30
2019-04-21T21:04:13.552Z,14.20
2019-04-21T21:06:47.183Z,14.10
2019-04-21T21:09:17.964Z,14.10
2019-04-21T21:12:11.350Z,13.90
2019-04-21T21:14:23.466Z,13.90
2019-04-21T21:17:01.271Z,13.80
2019-04-21T21:19:33.231Z,13.70
2019-04-21T21:21:54.082Z,13.70
2019-04-21T21:24:31.063Z,13.60
2019-04-21T21:26:58.983Z,13.60
2019-04-21T21:29:29.229Z,13.50
2019-04-21T21:32:08.569Z,13.40
2019-04-21T21:34:32.920Z,13.40
2019-04-21T21:37:14.304Z,13.30
2019-04-21T21:39:41.162Z,13.30
2019-04-21T21:41:51.009Z,13.30
2019-04-21T21:44:22.792Z,13.20
2019-04-21T21:47:04.269Z,13.10
2019-04-21T21:49:33.516Z,13.10
2019-04-21T21:52:02.704Z,13.00
2019-04-21T21:54:23.849Z,13.00
2019-04-21T21:56:54.382Z,12.90
2019-04-21T21:59:27.865Z,12.90
2019-04-21T22:01:56.597Z,12.80
2019-04-21T22:04:28.796Z,12.80
2019-04-21T22:07:02.485Z,12.70
2019-04-21T22:09:28.299Z,12.70
2019-04-21T22:12:01.347Z,12.60
2019-04-21T22:14:36.431Z,12.60
2019-04-21T22:17:16.500Z,12.50
2019-04-21T22:19:52.272Z,12.40
2019-04-21T22:22:17.960Z,12.40
2019-04-21T22:24:46.398Z,12.30
2019-04-21T22:27:05.351Z,12.30
2019-04-21T22:29:41.292Z,12.30
2019-04-21T22:32:10.215Z,12.20
2019-04-21T22:34:47.031Z,12.20
2019-04-21T22:37:27.498Z,12.10
2019-04-21T22:39:53.093Z,12.10
2019-04-21T22:42:19.395Z,12.10
2019-04-21T22:44:40.592Z,12.00
2019-04-21T22:47:17.471Z,11.90
2019-04-21T22:49:41.169Z,11.90
2019-04-21T22:52:17.116Z,11.90
2019-04-21T22:54:44.917Z,11.80
2019-04-21T22:57:18.352Z,11.70
2019-04-21T22:59:51.901Z,11.70
2019-04-21T23:02:23.758Z,11.60
2019-04-21T23:04:52.481Z,11.60
2019-04-21T23:07:21.085Z,11.60
2019-04-21T23:09:49.427Z,11.70
2019-04-21T23:12:25.272Z,11.70
2019-04-21T23:14:58.529Z,11.80
2019-04-21T23:17:38.467Z,11.90
2019-04-21T23:20:09.959Z,11.90
2019-04-21T23:22:56.908Z,11.90
2019-04-21T23:25:13.595Z,11.90
2019-04-21T23:27:46.902Z,11.90
2019-04-21T23:30:20.291Z,11.90
2019-04-21T23:32:36.267Z,11.80
2019-04-21T23:35:01.757Z,11.80
2019-04-21T23:37:32.760Z,11.70
2019-04-21T23:40:06.982Z,11.70
2019-04-21T23:42:36.197Z,11.60
2019-04-21T23:45:04.644Z,11.50
2019-04-21T23:47:44.141Z,11.40
2019-04-21T23:50:19.923Z,11.40
2019-04-21T23:52:39.365Z,11.30
2019-04-21T23:55:09.364Z,11.20
2019-04-21T23:57:44.512Z,11.20
